createdAt,value
2023-08-28T00:01:35.226Z,9.93
2023-08-28T00:04:16.212Z,5.80
2023-08-28T00:09:40.934Z,12.20
2023-08-28T00:12:10.235Z,10.77
2023-08-28T00:17:24.809Z,9.52
2023-08-28T00:19:52.253Z,7.30
2023-08-28T00:22:21.025Z,12.68
2023-08-28T00:24:48.791Z,6.78
2023-08-28T00:27:17.110Z,7.28
2023-08-28T00:29:53.541Z,8.48
2023-08-28T00:32:22.940Z,8.13
2023-08-28T00:34:54.725Z,8.68
2023-08-28T00:37:22.384Z,7.28
2023-08-28T00:39:51.895Z,9.57
2023-08-28T00:45:04.612Z,9.20
2023-08-28T00:47:42.409Z,7.22
2023-08-28T00:50:10.190Z,7.15
2023-08-28T00:52:41.113Z,8.38
2023-08-28T00:55:23.052Z,11.43
2023-08-28T00:57:56.843Z,11.27
2023-08-28T01:00:26.366Z,9.50
2023-08-28T01:02:55.905Z,7.72
2023-08-28T01:05:35.201Z,11.10
2023-08-28T01:08:16.444Z,9.75
2023-08-28T01:10:49.660Z,7.72
2023-08-28T01:13:26.982Z,9.32
2023-08-28T01:15:56.155Z,19.63
2023-08-28T01:18:25.257Z,11.23
2023-08-28T01:23:33.996Z,10.82
2023-08-28T01:26:02.562Z,10.57
2023-08-28T01:28:32.935Z,12.07
2023-08-28T01:31:17.647Z,8.25
2023-08-28T01:36:33.948Z,9.25
2023-08-28T01:39:07.483Z,11.65
2023-08-28T01:41:36.678Z,11.43
2023-08-28T01:44:15.178Z,8.65
2023-08-28T01:46:46.996Z,7.10
2023-08-28T01:49:19.732Z,11.20
2023-08-28T01:51:48.330Z,13.07
2023-08-28T01:54:17.089Z,9.98
2023-08-28T01:56:51.633Z,7.38
2023-08-28T01:59:22.773Z,11.23
2023-08-28T02:01:54.487Z,8.60
2023-08-28T02:04:24.235Z,11.80
2023-08-28T02:07:00.527Z,8.13
2023-08-28T02:13:00.199Z,18.73
2023-08-28T02:15:47.187Z,8.50
2023-08-28T02:20:45.670Z,6.90
2023-08-28T02:23:14.160Z,8.52
2023-08-28T02:25:48.864Z,8.75
2023-08-28T02:28:19.923Z,9.70
2023-08-28T02:30:47.817Z,9.60
2023-08-28T02:33:17.303Z,9.60
2023-08-28T02:35:45.379Z,9.27
2023-08-28T02:38:15.895Z,9.63
2023-08-28T02:40:44.170Z,11.82
2023-08-28T02:43:13.971Z,12.77
2023-08-28T02:45:44.448Z,8.77
2023-08-28T02:48:12.864Z,7.68
2023-08-28T02:50:57.966Z,16.58
2023-08-28T02:53:27.174Z,11.65
2023-08-28T02:56:21.580Z,13.20
2023-08-28T02:58:49.722Z,8.93
2023-08-28T03:01:18.712Z,12.48
2023-08-28T03:03:46.823Z,13.93
2023-08-28T03:06:16.712Z,16.42
2023-08-28T03:11:34.468Z,12.75
2023-08-28T03:25:00.237Z,13.90
2023-08-28T03:30:13.605Z,18.42
2023-08-28T03:32:41.598Z,17.00
2023-08-28T03:35:16.519Z,15.30
2023-08-28T03:41:38.997Z,17.83
2023-08-28T03:53:39.831Z,14.23
2023-08-28T04:10:00.923Z,13.73
2023-08-28T04:12:31.077Z,18.77
2023-08-28T07:54:12.983Z,8.10
2023-08-28T21:32:20.360Z,2.90
2023-08-28T21:34:49.188Z,6.38
2023-08-28T21:37:21.841Z,4.03
2023-08-28T21:43:22.592Z,2.83
2023-08-28T21:46:04.280Z,2.50
2023-08-28T21:48:37.270Z,2.15
2023-08-28T21:51:14.069Z,4.47
2023-08-28T21:53:55.928Z,6.68
2023-08-28T21:56:25.981Z,2.97
2023-08-28T21:58:56.709Z,6.50
2023-08-28T22:01:25.114Z,4.38
2023-08-28T22:03:53.447Z,4.82
2023-08-28T22:06:26.647Z,10.38
2023-08-28T22:09:03.855Z,3.58
2023-08-28T22:11:40.710Z,5.93
2023-08-28T22:14:08.665Z,6.45
2023-08-28T22:16:38.065Z,6.68
2023-08-28T22:19:10.387Z,5.90
2023-08-28T22:21:39.172Z,6.45
2023-08-28T22:27:05.484Z,6.57
2023-08-28T22:29:36.251Z,6.72
2023-08-28T22:32:06.054Z,8.15
2023-08-28T22:34:37.806Z,3.03
2023-08-28T22:37:05.770Z,3.08
2023-08-28T22:39:34.559Z,3.70
2023-08-28T22:45:11.152Z,2.25
2023-08-28T22:47:42.711Z,4.40
2023-08-28T22:50:11.610Z,5.55
2023-08-28T22:52:38.684Z,3.50
2023-08-28T22:55:08.402Z,3.05
2023-08-28T22:57:36.976Z,6.45
2023-08-28T23:00:09.848Z,5.50
2023-08-28T23:02:43.104Z,8.65
2023-08-28T23:05:19.253Z,4.93
2023-08-28T23:07:58.366Z,5.38
2023-08-28T23:10:26.909Z,7.38
2023-08-28T23:12:54.885Z,6.47
2023-08-28T23:15:26.656Z,8.60
2023-08-28T23:17:54.753Z,6.45
2023-08-28T23:20:25.145Z,7.22
2023-08-28T23:22:54.368Z,12.85
2023-08-28T23:25:39.742Z,10.20
2023-08-28T23:28:09.856Z,8.38
2023-08-28T23:30:40.670Z,8.13
2023-08-28T23:33:08.708Z,9.15
2023-08-28T23:35:47.290Z,11.80
2023-08-28T23:38:15.553Z,11.60
2023-08-28T23:40:51.717Z,11.00
2023-08-28T23:45:58.457Z,10.10
2023-08-28T23:48:29.679Z,10.27
2023-08-28T23:51:21.199Z,12.60
2023-08-28T23:53:48.934Z,13.02
2023-08-28T23:56:16.828Z,10.70
2023-08-28T23:58:47.115Z,10.13
